Airfield :
LOGIN :

Register | Disclaimer

   EN    FR    IT 

 










Legend :    VFR   Marginal VFR   IFR   Intensive IFR   Very Intensive IFR
Visi :
Ceiling :
>= 8 km
>= 3000ft
5 to 8 km
1000 to 3000 ft
1500m to 5 km
500 to 1000 ft
800 to 1500m
200 to 500 ft
< 800m
< 200 ft
Symbols :   Thunderstorms  Fog  Heavy snow  Heavy precipitations  Wind > 20 kt
SIGMETs :     Misc.  Thunderstorms  Icing  Turbulence  Mountain Waves  Volcanic Ashes







- Airport Elevation : 375 ft
- IATA code : MST


EHBK - Maastricht Aachen

CURRENT METAR :
  • 261125Z AUTO 33005KT 270V040 6000 NCD 26/19 Q1025 BECMG 9999

EXPIRED METARs :
  • 261055Z AUTO 34005KT 260V040 6000 NCD 26/19 Q1025 NOSIG
  • 261025Z AUTO 34005KT 260V050 8000 NCD 25/19 Q1025 NOSIG
  • 260955Z AUTO 34006KT 300V030 7000 NCD 25/19 Q1025 BECMG 8000
  • 260925Z AUTO 32005KT 280V020 7000 NCD 25/18 Q1024 BECMG 8000
  • 260855Z AUTO 32005KT 250V360 6000 NCD 24/19 Q1024 BECMG 8000

TAF COR TAF EHBK
Valid from the 26 at 12:00 until the 27 at 18:00 UTC


261126Z 2612/2718 33005KT 7000 NSC
BECMG 2612/2615 9999
BECMG 2615/2618 36010KT
BECMG 2620/2623 03008KT
No reported NOTAMs for that airfield.



MET'MAP, your aeronautical weather chart ! - Copyright ORBIFLY December 2007 - Disclaimer

ORBIFLY MET'MAP TEAM :

Programming & Development : Alexandra Zaïnal
Concept & Development : Baudouin d'Aumeries
Co-Development & Prog : Marc-Olivier Méhu
Technical & hardware support : Manuel Goepfert

Contact : metmap@orbifly.com




SOURCES & CREDITS :

   NOAA